createdAt,value
2018-10-06T00:00:20.819Z,4.65
2018-10-06T00:06:15.760Z,4.8
2018-10-06T00:12:10.811Z,4.75
2018-10-06T00:18:05.789Z,4.64
2018-10-06T00:24:00.786Z,3.62
2018-10-06T00:29:55.807Z,4.28
2018-10-06T00:35:50.799Z,3.47
2018-10-06T00:41:45.794Z,3.18
2018-10-06T00:47:40.800Z,3.17
2018-10-06T00:53:35.791Z,3.9
2018-10-06T00:59:30.814Z,3.66
2018-10-06T01:05:25.806Z,3.87
2018-10-06T01:11:20.814Z,3.57
2018-10-06T01:17:15.823Z,3
2018-10-06T01:23:10.831Z,3.27
2018-10-06T01:29:05.827Z,4
2018-10-06T01:35:00.848Z,4.36
2018-10-06T01:40:55.823Z,3.78
2018-10-06T01:46:50.870Z,3.9
2018-10-06T01:52:45.845Z,4.78
2018-10-06T01:58:40.835Z,2.16
2018-10-06T02:04:35.860Z,4.36
2018-10-06T02:10:30.856Z,3.74
2018-10-06T02:16:25.851Z,4.25
2018-10-06T02:22:20.864Z,4.35
2018-10-06T02:28:15.881Z,3.9
2018-10-06T02:34:10.852Z,4.44
2018-10-06T02:40:05.870Z,5.04
2018-10-06T02:46:00.888Z,3.86
2018-10-06T02:51:55.884Z,4.29
2018-10-06T02:57:50.917Z,4.82
2018-10-06T03:03:45.900Z,4.53
2018-10-06T03:09:40.883Z,4.47
2018-10-06T03:15:35.897Z,4.64
2018-10-06T03:21:30.909Z,4.5
2018-10-06T03:27:25.900Z,4.65
2018-10-06T03:33:20.908Z,4.48
2018-10-06T03:39:15.918Z,5.07
2018-10-06T03:45:10.914Z,4.54
2018-10-06T03:51:05.930Z,5.34
2018-10-06T03:57:00.936Z,5.13
2018-10-06T04:02:55.909Z,4.78
2018-10-06T04:08:50.938Z,5.17
2018-10-06T04:14:45.937Z,3.22
2018-10-06T04:20:40.951Z,6.77
2018-10-06T04:26:35.935Z,6.89
2018-10-06T04:32:30.954Z,6.54
2018-10-06T04:38:25.963Z,7.37
2018-10-06T04:44:20.963Z,6.4
2018-10-06T04:50:15.949Z,6.82
2018-10-06T04:56:10.948Z,7.09
2018-10-06T05:02:05.956Z,8.24
2018-10-06T05:08:01.000Z,8.34
2018-10-06T05:13:55.962Z,7.49
2018-10-06T05:19:50.980Z,7.07
2018-10-06T05:25:45.968Z,7
2018-10-06T05:31:40.971Z,7.61
2018-10-06T05:37:35.984Z,6.56
2018-10-06T05:43:30.991Z,6.91
2018-10-06T05:49:25.989Z,6.62
2018-10-06T05:55:20.986Z,7.85
2018-10-06T06:01:15.985Z,7.12
2018-10-06T06:07:11.013Z,7.21
2018-10-06T06:13:06.065Z,6.4
2018-10-06T06:19:00.996Z,7.33
2018-10-06T06:24:56.008Z,6.7
2018-10-06T06:30:51.066Z,7.48
2018-10-06T06:36:46.041Z,9.07
2018-10-06T06:42:41.030Z,10.46
2018-10-06T06:48:36.052Z,10.68
2018-10-06T06:54:31.042Z,10.5
2018-10-06T07:00:26.037Z,10.27
2018-10-06T07:06:21.022Z,11.44
2018-10-06T07:12:16.057Z,10.46
2018-10-06T07:18:11.038Z,10.46
2018-10-06T07:24:06.045Z,10.57
2018-10-06T07:30:01.069Z,11.05
2018-10-06T07:35:56.055Z,11.13
2018-10-06T07:41:51.045Z,11.72
2018-10-06T07:47:46.116Z,10.42
2018-10-06T07:53:41.152Z,9.22
2018-10-06T07:59:36.128Z,9.67
2018-10-06T08:05:31.156Z,8.83
2018-10-06T08:11:26.151Z,10
2018-10-06T08:17:21.180Z,10.67
2018-10-06T08:23:20.264Z,10.11
2018-10-06T08:29:11.087Z,9.43
2018-10-06T08:35:10.172Z,11.11
2018-10-06T08:41:01.087Z,16.34
2018-10-06T08:46:56.102Z,15.99
2018-10-06T08:52:51.116Z,12
2018-10-06T08:58:46.144Z,9.36
2018-10-06T09:04:41.110Z,9.34
2018-10-06T09:10:36.121Z,8.71
2018-10-06T09:16:31.127Z,8.35
2018-10-06T09:22:26.114Z,10.38
2018-10-06T09:28:21.151Z,10.93
2018-10-06T09:34:16.160Z,9.2
2018-10-06T09:40:11.122Z,9.17
2018-10-06T09:46:06.211Z,9.17
2018-10-06T09:52:01.143Z,8.87
2018-10-06T09:57:56.138Z,10.21
2018-10-06T10:03:51.163Z,9.38
2018-10-06T10:09:46.145Z,9.51
2018-10-06T10:15:41.171Z,8.21
2018-10-06T10:21:36.171Z,8.24
2018-10-06T10:27:31.189Z,10.44
2018-10-06T10:33:26.165Z,11.72
2018-10-06T10:39:21.228Z,12.68
2018-10-06T10:45:16.166Z,13.39
2018-10-06T10:51:11.185Z,14.16
2018-10-06T10:57:06.178Z,14.75
2018-10-06T11:03:01.213Z,14.57
2018-10-06T11:08:56.215Z,10.06
2018-10-06T11:14:51.177Z,11.06
2018-10-06T11:20:46.200Z,10.07
2018-10-06T11:26:41.212Z,9.51
2018-10-06T11:32:36.217Z,10.51
2018-10-06T11:38:31.221Z,9.78
2018-10-06T11:44:26.202Z,10.04
2018-10-06T11:50:21.316Z,9.33
2018-10-06T11:56:16.217Z,8.77
2018-10-06T12:02:11.225Z,9.26
2018-10-06T12:08:06.296Z,7.74
2018-10-06T12:14:01.224Z,8.66
2018-10-06T12:19:56.233Z,14.14
2018-10-06T12:25:51.240Z,8.93
2018-10-06T12:31:46.229Z,8.47
2018-10-06T12:37:41.229Z,9.3
2018-10-06T12:43:36.245Z,9.65
2018-10-06T12:49:31.311Z,9.3
2018-10-06T12:55:26.245Z,9.08
2018-10-06T13:01:21.272Z,9.56
2018-10-06T13:07:16.254Z,10.65
2018-10-06T13:13:11.266Z,9.7
2018-10-06T13:19:06.261Z,9.92
2018-10-06T13:25:01.266Z,10.29
2018-10-06T13:30:56.280Z,10.28
2018-10-06T13:36:51.293Z,10.61
2018-10-06T13:42:46.350Z,10.87
2018-10-06T13:48:41.272Z,10.83
2018-10-06T13:54:36.281Z,10.41
2018-10-06T14:00:31.284Z,10.74
2018-10-06T14:06:26.329Z,12.14
2018-10-06T14:12:21.306Z,11.24
2018-10-06T14:18:16.309Z,11.39
2018-10-06T14:24:11.304Z,11.07
2018-10-06T14:30:06.318Z,10.79
2018-10-06T14:36:01.295Z,9.66
2018-10-06T14:41:56.349Z,10.39
2018-10-06T14:47:51.368Z,11.07
2018-10-06T14:53:46.359Z,10.41
2018-10-06T14:59:41.366Z,10.78
2018-10-06T15:05:36.325Z,11.38
2018-10-06T15:11:31.415Z,13.14
2018-10-06T15:17:26.322Z,11.93
2018-10-06T15:23:21.365Z,11.63
2018-10-06T15:29:16.397Z,11.62
2018-10-06T15:35:11.340Z,12.76
2018-10-06T15:41:06.368Z,13.37
2018-10-06T15:47:01.338Z,13.18
2018-10-06T15:52:56.351Z,14.08
2018-10-06T15:58:51.355Z,13.88
2018-10-06T16:04:46.469Z,13.39
2018-10-06T16:10:41.400Z,13.3
2018-10-06T16:16:36.395Z,14.46
2018-10-06T16:22:31.366Z,13.93
2018-10-06T16:28:26.403Z,15.23
2018-10-06T16:34:21.439Z,16.69
2018-10-06T16:40:16.414Z,14.66
2018-10-06T16:46:11.410Z,14.68
2018-10-06T16:52:06.401Z,13.49
2018-10-06T16:58:01.403Z,11.58
2018-10-06T17:03:56.399Z,12.4
2018-10-06T17:09:51.425Z,11.74
2018-10-06T17:15:46.416Z,12.83
2018-10-06T17:21:41.428Z,13.13
2018-10-06T17:27:36.438Z,11.44
2018-10-06T17:33:31.426Z,11.1
2018-10-06T17:39:26.433Z,11.5
2018-10-06T17:45:21.458Z,12.23
2018-10-06T17:51:16.436Z,12.44
2018-10-06T17:57:11.446Z,13.4
2018-10-06T18:03:06.446Z,13.31
2018-10-06T18:09:01.468Z,12.45
2018-10-06T18:14:56.438Z,14.84
2018-10-06T18:20:51.477Z,14.19
2018-10-06T18:26:46.468Z,15.06
2018-10-06T18:32:41.444Z,13.68
2018-10-06T18:38:36.473Z,14.08
2018-10-06T18:44:31.453Z,11.56
2018-10-06T18:50:26.455Z,12.56
2018-10-06T18:56:21.539Z,13.13
2018-10-06T19:02:16.478Z,13.9
2018-10-06T19:08:11.471Z,14.28
2018-10-06T19:14:06.610Z,13.47
2018-10-06T19:20:01.486Z,13.76
2018-10-06T19:25:56.485Z,13.06
2018-10-06T19:31:51.524Z,13
2018-10-06T19:37:46.534Z,14.23
2018-10-06T19:43:41.507Z,15.41
2018-10-06T19:49:36.505Z,14.54
2018-10-06T19:55:31.542Z,15.51
2018-10-06T20:01:26.531Z,15.13
2018-10-06T20:07:21.528Z,14.48
2018-10-06T20:13:16.565Z,12.53
2018-10-06T20:19:11.566Z,11.42
2018-10-06T20:25:06.518Z,10.08
2018-10-06T20:31:01.533Z,9.98
2018-10-06T20:36:56.530Z,9.6
2018-10-06T20:42:51.602Z,9.82
2018-10-06T20:48:46.526Z,9.52
2018-10-06T20:54:41.563Z,9.28
2018-10-06T21:00:36.543Z,9.46
2018-10-06T21:06:31.564Z,8.85
2018-10-06T21:12:26.559Z,9.71
2018-10-06T21:18:21.640Z,10.28
2018-10-06T21:24:16.591Z,10.67
2018-10-06T21:30:11.563Z,10.52
2018-10-06T21:36:06.565Z,10.11
2018-10-06T21:42:01.586Z,10.69
2018-10-06T21:47:56.600Z,10.62
2018-10-06T21:53:51.589Z,8.64
2018-10-06T21:59:46.590Z,8.18
2018-10-06T22:05:41.604Z,8.16
2018-10-06T22:11:36.603Z,7.73
2018-10-06T22:17:31.597Z,7.35
2018-10-06T22:23:26.651Z,8.02
2018-10-06T22:29:21.677Z,7.76
2018-10-06T22:35:16.614Z,8.46
2018-10-06T22:41:11.625Z,7.43
2018-10-06T22:47:06.595Z,8.03
2018-10-06T22:53:01.616Z,10.73
2018-10-06T22:58:56.606Z,10.24
2018-10-06T23:04:51.617Z,11.65
2018-10-06T23:10:46.624Z,10.34
2018-10-06T23:16:41.635Z,9.57
2018-10-06T23:22:36.642Z,9.34
2018-10-06T23:28:31.631Z,9.58
2018-10-06T23:34:26.653Z,9.37
2018-10-06T23:40:21.672Z,9.65
2018-10-06T23:46:16.647Z,11.01
2018-10-06T23:52:11.692Z,10.17
2018-10-06T23:58:06.659Z,10.44
